sensor_id;sensor_type;location;lat;lon;timestamp;P1;durP1;ratioP1;P2;durP2;ratioP2
938;SDS011;456;53.584;9.968;2023-08-12T00:02:11;2.20;;;2.10;;
938;SDS011;456;53.584;9.968;2023-08-12T00:04:37;2.10;;;2.00;;
938;SDS011;456;53.584;9.968;2023-08-12T00:07:03;2.30;;;2.20;;
938;SDS011;456;53.584;9.968;2023-08-12T00:09:28;2.30;;;2.10;;
938;SDS011;456;53.584;9.968;2023-08-12T00:11:54;2.40;;;2.03;;
938;SDS011;456;53.584;9.968;2023-08-12T00:14:20;2.23;;;2.03;;
938;SDS011;456;53.584;9.968;2023-08-12T00:16:45;2.03;;;1.93;;
938;SDS011;456;53.584;9.968;2023-08-12T00:19:11;2.50;;;2.30;;
938;SDS011;456;53.584;9.968;2023-08-12T00:21:36;2.17;;;2.07;;
938;SDS011;456;53.584;9.968;2023-08-12T00:24:02;2.30;;;2.10;;
938;SDS011;456;53.584;9.968;2023-08-12T00:26:28;1.83;;;1.73;;
938;SDS011;456;53.584;9.968;2023-08-12T00:28:53;1.97;;;1.87;;
938;SDS011;456;53.584;9.968;2023-08-12T00:31:19;2.00;;;1.90;;
938;SDS011;456;53.584;9.968;2023-08-12T00:33:44;2.17;;;2.00;;
938;SDS011;456;53.584;9.968;2023-08-12T00:36:10;1.83;;;1.73;;
938;SDS011;456;53.584;9.968;2023-08-12T00:38:36;2.43;;;2.30;;
938;SDS011;456;53.584;9.968;2023-08-12T00:41:01;1.90;;;1.80;;
938;SDS011;456;53.584;9.968;2023-08-12T00:43:28;2.20;;;2.03;;
938;SDS011;456;53.584;9.968;2023-08-12T00:45:54;2.00;;;1.90;;
938;SDS011;456;53.584;9.968;2023-08-12T00:48:19;2.30;;;2.20;;
938;SDS011;456;53.584;9.968;2023-08-12T00:50:45;2.20;;;2.00;;
938;SDS011;456;53.584;9.968;2023-08-12T00:53:11;2.30;;;2.10;;
938;SDS011;456;53.584;9.968;2023-08-12T00:55:38;2.30;;;2.10;;
938;SDS011;456;53.584;9.968;2023-08-12T00:58:04;2.40;;;2.20;;
938;SDS011;456;53.584;9.968;2023-08-12T01:00:30;2.03;;;1.90;;
938;SDS011;456;53.584;9.968;2023-08-12T01:02:56;1.70;;;1.60;;
938;SDS011;456;53.584;9.968;2023-08-12T01:05:22;2.13;;;2.03;;
938;SDS011;456;53.584;9.968;2023-08-12T01:07:48;1.97;;;1.87;;
938;SDS011;456;53.584;9.968;2023-08-12T01:10:14;1.63;;;1.53;;
938;SDS011;456;53.584;9.968;2023-08-12T01:12:44;2.30;;;2.10;;
938;SDS011;456;53.584;9.968;2023-08-12T01:15:20;2.10;;;2.00;;
938;SDS011;456;53.584;9.968;2023-08-12T01:17:48;2.37;;;2.17;;
938;SDS011;456;53.584;9.968;2023-08-12T01:20:17;1.93;;;1.83;;
938;SDS011;456;53.584;9.968;2023-08-12T01:22:52;1.90;;;1.80;;
938;SDS011;456;53.584;9.968;2023-08-12T01:25:26;2.63;;;2.10;;
938;SDS011;456;53.584;9.968;2023-08-12T01:27:51;2.50;;;2.30;;
938;SDS011;456;53.584;9.968;2023-08-12T01:30:17;1.90;;;1.80;;
938;SDS011;456;53.584;9.968;2023-08-12T01:32:55;2.40;;;2.20;;
938;SDS011;456;53.584;9.968;2023-08-12T01:35:30;1.80;;;1.70;;
938;SDS011;456;53.584;9.968;2023-08-12T01:38:01;2.20;;;2.00;;
938;SDS011;456;53.584;9.968;2023-08-12T01:40:30;2.53;;;2.30;;
938;SDS011;456;53.584;9.968;2023-08-12T01:42:57;2.17;;;2.00;;
938;SDS011;456;53.584;9.968;2023-08-12T01:45:24;2.27;;;2.07;;
938;SDS011;456;53.584;9.968;2023-08-12T01:47:50;2.33;;;2.13;;
938;SDS011;456;53.584;9.968;2023-08-12T01:50:16;2.70;;;2.50;;
938;SDS011;456;53.584;9.968;2023-08-12T01:52:42;1.70;;;1.60;;
938;SDS011;456;53.584;9.968;2023-08-12T01:55:07;2.50;;;2.30;;
938;SDS011;456;53.584;9.968;2023-08-12T01:57:33;2.33;;;2.23;;
938;SDS011;456;53.584;9.968;2023-08-12T02:00:00;2.10;;;2.00;;
938;SDS011;456;53.584;9.968;2023-08-12T02:02:26;2.20;;;2.00;;
938;SDS011;456;53.584;9.968;2023-08-12T02:04:52;2.30;;;2.20;;
938;SDS011;456;53.584;9.968;2023-08-12T02:07:18;2.33;;;2.17;;
938;SDS011;456;53.584;9.968;2023-08-12T02:09:43;1.93;;;1.83;;
938;SDS011;456;53.584;9.968;2023-08-12T02:12:09;2.80;;;2.60;;
938;SDS011;456;53.584;9.968;2023-08-12T02:14:34;2.50;;;2.23;;
938;SDS011;456;53.584;9.968;2023-08-12T02:17:01;2.37;;;2.17;;
938;SDS011;456;53.584;9.968;2023-08-12T02:19:30;2.50;;;2.30;;
938;SDS011;456;53.584;9.968;2023-08-12T02:21:56;2.87;;;2.60;;
938;SDS011;456;53.584;9.968;2023-08-12T02:24:22;2.00;;;1.90;;
938;SDS011;456;53.584;9.968;2023-08-12T02:26:47;2.83;;;2.40;;
938;SDS011;456;53.584;9.968;2023-08-12T02:29:13;2.23;;;2.03;;
938;SDS011;456;53.584;9.968;2023-08-12T02:31:39;2.47;;;2.30;;
938;SDS011;456;53.584;9.968;2023-08-12T02:34:04;2.20;;;2.10;;
938;SDS011;456;53.584;9.968;2023-08-12T02:36:30;2.90;;;2.70;;
938;SDS011;456;53.584;9.968;2023-08-12T02:38:55;3.50;;;2.53;;
938;SDS011;456;53.584;9.968;2023-08-12T02:41:21;2.90;;;2.70;;
938;SDS011;456;53.584;9.968;2023-08-12T02:43:46;2.83;;;2.63;;
938;SDS011;456;53.584;9.968;2023-08-12T02:46:12;2.50;;;2.30;;
938;SDS011;456;53.584;9.968;2023-08-12T02:48:40;2.33;;;2.13;;
938;SDS011;456;53.584;9.968;2023-08-12T02:51:05;2.23;;;2.13;;
938;SDS011;456;53.584;9.968;2023-08-12T02:53:31;2.87;;;2.67;;
938;SDS011;456;53.584;9.968;2023-08-12T02:55:56;2.60;;;2.40;;
938;SDS011;456;53.584;9.968;2023-08-12T02:58:22;2.53;;;2.33;;
938;SDS011;456;53.584;9.968;2023-08-12T03:00:48;2.30;;;2.10;;
938;SDS011;456;53.584;9.968;2023-08-12T03:03:13;2.47;;;2.27;;
938;SDS011;456;53.584;9.968;2023-08-12T03:05:39;2.70;;;2.50;;
938;SDS011;456;53.584;9.968;2023-08-12T03:08:05;2.87;;;2.67;;
938;SDS011;456;53.584;9.968;2023-08-12T03:10:32;2.77;;;2.57;;
938;SDS011;456;53.584;9.968;2023-08-12T03:12:58;3.13;;;2.50;;
938;SDS011;456;53.584;9.968;2023-08-12T03:15:24;3.03;;;2.70;;
938;SDS011;456;53.584;9.968;2023-08-12T03:17:50;3.03;;;2.80;;
938;SDS011;456;53.584;9.968;2023-08-12T03:20:15;2.90;;;2.70;;
938;SDS011;456;53.584;9.968;2023-08-12T03:22:41;2.83;;;2.63;;
938;SDS011;456;53.584;9.968;2023-08-12T03:25:07;2.90;;;2.70;;
938;SDS011;456;53.584;9.968;2023-08-12T03:27:32;2.63;;;2.43;;
938;SDS011;456;53.584;9.968;2023-08-12T03:29:58;2.63;;;2.43;;
938;SDS011;456;53.584;9.968;2023-08-12T03:32:24;2.90;;;2.70;;
938;SDS011;456;53.584;9.968;2023-08-12T03:34:51;3.40;;;2.50;;
938;SDS011;456;53.584;9.968;2023-08-12T03:37:17;3.07;;;2.87;;
938;SDS011;456;53.584;9.968;2023-08-12T03:39:42;3.00;;;2.70;;
938;SDS011;456;53.584;9.968;2023-08-12T03:42:08;2.83;;;2.63;;
938;SDS011;456;53.584;9.968;2023-08-12T03:44:33;2.50;;;2.40;;
938;SDS011;456;53.584;9.968;2023-08-12T03:46:59;2.73;;;2.53;;
938;SDS011;456;53.584;9.968;2023-08-12T03:49:24;2.50;;;2.40;;
938;SDS011;456;53.584;9.968;2023-08-12T03:51:50;3.33;;;3.03;;
938;SDS011;456;53.584;9.968;2023-08-12T03:54:16;4.00;;;3.30;;
938;SDS011;456;53.584;9.968;2023-08-12T03:56:41;3.20;;;3.00;;
938;SDS011;456;53.584;9.968;2023-08-12T03:59:07;2.93;;;2.73;;
938;SDS011;456;53.584;9.968;2023-08-12T04:01:32;3.20;;;2.90;;
938;SDS011;456;53.584;9.968;2023-08-12T04:03:58;3.20;;;3.00;;
938;SDS011;456;53.584;9.968;2023-08-12T04:06:23;2.90;;;2.70;;
938;SDS011;456;53.584;9.968;2023-08-12T04:08:49;2.90;;;2.70;;
938;SDS011;456;53.584;9.968;2023-08-12T04:11:14;3.10;;;2.90;;
938;SDS011;456;53.584;9.968;2023-08-12T04:13:40;3.20;;;2.70;;
938;SDS011;456;53.584;9.968;2023-08-12T04:16:05;3.10;;;2.90;;
938;SDS011;456;53.584;9.968;2023-08-12T04:18:31;3.30;;;3.10;;
938;SDS011;456;53.584;9.968;2023-08-12T04:20:57;3.10;;;2.90;;
938;SDS011;456;53.584;9.968;2023-08-12T04:23:22;2.90;;;2.70;;
938;SDS011;456;53.584;9.968;2023-08-12T04:25:48;3.53;;;3.30;;
938;SDS011;456;53.584;9.968;2023-08-12T04:28:14;3.03;;;2.83;;
938;SDS011;456;53.584;9.968;2023-08-12T04:30:41;3.30;;;3.00;;
938;SDS011;456;53.584;9.968;2023-08-12T04:33:08;3.60;;;3.30;;
938;SDS011;456;53.584;9.968;2023-08-12T04:35:33;3.67;;;3.37;;
938;SDS011;456;53.584;9.968;2023-08-12T04:37:59;3.30;;;3.00;;
938;SDS011;456;53.584;9.968;2023-08-12T04:40:24;3.43;;;3.23;;
938;SDS011;456;53.584;9.968;2023-08-12T04:42:50;3.20;;;3.00;;
938;SDS011;456;53.584;9.968;2023-08-12T04:45:16;3.17;;;2.97;;
938;SDS011;456;53.584;9.968;2023-08-12T04:47:42;3.63;;;3.33;;
938;SDS011;456;53.584;9.968;2023-08-12T04:50:07;3.27;;;3.07;;
938;SDS011;456;53.584;9.968;2023-08-12T04:52:33;3.30;;;3.00;;
938;SDS011;456;53.584;9.968;2023-08-12T04:54:59;3.77;;;3.47;;
938;SDS011;456;53.584;9.968;2023-08-12T04:57:25;3.87;;;3.60;;
938;SDS011;456;53.584;9.968;2023-08-12T04:59:50;3.77;;;3.47;;
938;SDS011;456;53.584;9.968;2023-08-12T05:02:16;3.30;;;3.10;;
938;SDS011;456;53.584;9.968;2023-08-12T05:04:46;3.90;;;3.60;;
938;SDS011;456;53.584;9.968;2023-08-12T05:07:15;3.50;;;3.30;;
938;SDS011;456;53.584;9.968;2023-08-12T05:09:41;3.50;;;3.30;;
938;SDS011;456;53.584;9.968;2023-08-12T05:12:09;3.83;;;3.53;;
938;SDS011;456;53.584;9.968;2023-08-12T05:14:36;3.40;;;3.10;;
938;SDS011;456;53.584;9.968;2023-08-12T05:17:02;3.37;;;3.17;;
938;SDS011;456;53.584;9.968;2023-08-12T05:19:28;4.03;;;3.73;;
938;SDS011;456;53.584;9.968;2023-08-12T05:21:53;4.20;;;3.90;;
938;SDS011;456;53.584;9.968;2023-08-12T05:24:19;3.83;;;3.53;;
938;SDS011;456;53.584;9.968;2023-08-12T05:26:44;3.50;;;3.30;;
938;SDS011;456;53.584;9.968;2023-08-12T05:29:10;3.70;;;3.50;;
938;SDS011;456;53.584;9.968;2023-08-12T05:31:36;3.50;;;3.20;;
938;SDS011;456;53.584;9.968;2023-08-12T05:34:01;3.87;;;3.57;;
938;SDS011;456;53.584;9.968;2023-08-12T05:36:27;3.53;;;3.30;;
938;SDS011;456;53.584;9.968;2023-08-12T05:38:53;3.50;;;3.27;;
938;SDS011;456;53.584;9.968;2023-08-12T05:41:19;3.47;;;3.23;;
938;SDS011;456;53.584;9.968;2023-08-12T05:43:45;3.63;;;3.33;;
938;SDS011;456;53.584;9.968;2023-08-12T05:46:11;3.50;;;3.30;;
938;SDS011;456;53.584;9.968;2023-08-12T05:48:36;4.00;;;3.70;;
938;SDS011;456;53.584;9.968;2023-08-12T05:51:02;4.13;;;3.83;;
938;SDS011;456;53.584;9.968;2023-08-12T05:53:27;3.80;;;3.50;;
938;SDS011;456;53.584;9.968;2023-08-12T05:55:53;4.60;;;4.30;;
938;SDS011;456;53.584;9.968;2023-08-12T05:58:18;4.00;;;3.70;;
938;SDS011;456;53.584;9.968;2023-08-12T06:00:45;3.70;;;3.50;;
938;SDS011;456;53.584;9.968;2023-08-12T06:03:11;3.90;;;3.60;;
938;SDS011;456;53.584;9.968;2023-08-12T06:05:37;3.83;;;3.63;;
938;SDS011;456;53.584;9.968;2023-08-12T06:08:03;4.40;;;4.10;;
938;SDS011;456;53.584;9.968;2023-08-12T06:10:29;3.80;;;3.50;;
938;SDS011;456;53.584;9.968;2023-08-12T06:12:54;3.90;;;3.70;;
938;SDS011;456;53.584;9.968;2023-08-12T06:15:20;3.87;;;3.57;;
938;SDS011;456;53.584;9.968;2023-08-12T06:17:45;4.23;;;3.93;;
938;SDS011;456;53.584;9.968;2023-08-12T06:20:11;4.37;;;3.97;;
938;SDS011;456;53.584;9.968;2023-08-12T06:22:37;5.43;;;5.03;;
938;SDS011;456;53.584;9.968;2023-08-12T06:25:02;3.63;;;3.43;;
938;SDS011;456;53.584;9.968;2023-08-12T06:27:28;4.50;;;4.20;;
938;SDS011;456;53.584;9.968;2023-08-12T06:29:54;4.27;;;3.97;;
938;SDS011;456;53.584;9.968;2023-08-12T06:32:19;4.57;;;4.17;;
938;SDS011;456;53.584;9.968;2023-08-12T06:34:45;3.97;;;3.73;;
938;SDS011;456;53.584;9.968;2023-08-12T06:37:11;4.30;;;3.90;;
938;SDS011;456;53.584;9.968;2023-08-12T06:39:36;4.23;;;3.80;;
938;SDS011;456;53.584;9.968;2023-08-12T06:42:02;4.43;;;3.70;;
938;SDS011;456;53.584;9.968;2023-08-12T06:44:28;4.57;;;4.07;;
938;SDS011;456;53.584;9.968;2023-08-12T06:46:54;4.00;;;3.70;;
938;SDS011;456;53.584;9.968;2023-08-12T06:49:19;4.90;;;4.50;;
938;SDS011;456;53.584;9.968;2023-08-12T06:51:45;5.80;;;4.67;;
938;SDS011;456;53.584;9.968;2023-08-12T06:54:10;4.37;;;4.07;;
938;SDS011;456;53.584;9.968;2023-08-12T06:56:36;4.40;;;4.10;;
938;SDS011;456;53.584;9.968;2023-08-12T06:59:02;3.87;;;3.60;;
938;SDS011;456;53.584;9.968;2023-08-12T07:29:56;4.50;;;4.20;;
938;SDS011;456;53.584;9.968;2023-08-12T07:32:22;5.10;;;4.70;;
938;SDS011;456;53.584;9.968;2023-08-12T07:34:47;4.37;;;3.97;;
938;SDS011;456;53.584;9.968;2023-08-12T07:37:13;3.97;;;3.67;;
938;SDS011;456;53.584;9.968;2023-08-12T07:39:38;4.00;;;3.80;;
938;SDS011;456;53.584;9.968;2023-08-12T07:42:04;4.03;;;3.73;;
938;SDS011;456;53.584;9.968;2023-08-12T07:44:30;4.40;;;4.10;;
938;SDS011;456;53.584;9.968;2023-08-12T07:46:55;4.17;;;3.87;;
938;SDS011;456;53.584;9.968;2023-08-12T07:49:21;4.10;;;3.80;;
938;SDS011;456;53.584;9.968;2023-08-12T07:51:47;4.30;;;3.97;;
938;SDS011;456;53.584;9.968;2023-08-12T07:54:12;4.80;;;4.50;;
938;SDS011;456;53.584;9.968;2023-08-12T07:56:38;4.47;;;4.07;;
938;SDS011;456;53.584;9.968;2023-08-12T07:59:03;3.80;;;3.60;;
938;SDS011;456;53.584;9.968;2023-08-12T08:01:29;4.10;;;3.80;;
938;SDS011;456;53.584;9.968;2023-08-12T08:03:54;4.43;;;4.13;;
938;SDS011;456;53.584;9.968;2023-08-12T08:06:21;4.03;;;3.73;;
938;SDS011;456;53.584;9.968;2023-08-12T08:08:48;4.43;;;4.13;;
938;SDS011;456;53.584;9.968;2023-08-12T08:11:14;4.77;;;4.37;;
938;SDS011;456;53.584;9.968;2023-08-12T08:13:40;4.07;;;3.77;;
938;SDS011;456;53.584;9.968;2023-08-12T08:16:05;4.43;;;4.03;;
938;SDS011;456;53.584;9.968;2023-08-12T08:18:31;4.53;;;4.13;;
938;SDS011;456;53.584;9.968;2023-08-12T08:20:56;3.70;;;3.50;;
938;SDS011;456;53.584;9.968;2023-08-12T08:23:22;4.70;;;4.40;;
938;SDS011;456;53.584;9.968;2023-08-12T08:25:47;4.43;;;4.03;;
938;SDS011;456;53.584;9.968;2023-08-12T08:28:13;4.40;;;4.10;;
938;SDS011;456;53.584;9.968;2023-08-12T08:30:40;4.87;;;4.53;;
938;SDS011;456;53.584;9.968;2023-08-12T08:33:05;6.00;;;4.70;;
938;SDS011;456;53.584;9.968;2023-08-12T08:35:31;4.07;;;3.77;;
938;SDS011;456;53.584;9.968;2023-08-12T08:37:56;4.00;;;3.70;;
938;SDS011;456;53.584;9.968;2023-08-12T08:40:22;4.07;;;3.57;;
938;SDS011;456;53.584;9.968;2023-08-12T08:42:51;4.80;;;4.40;;
938;SDS011;456;53.584;9.968;2023-08-12T08:45:20;4.73;;;4.33;;
938;SDS011;456;53.584;9.968;2023-08-12T08:47:48;4.70;;;4.30;;
938;SDS011;456;53.584;9.968;2023-08-12T08:50:16;4.63;;;4.23;;
938;SDS011;456;53.584;9.968;2023-08-12T08:52:43;4.43;;;4.13;;
938;SDS011;456;53.584;9.968;2023-08-12T08:55:09;4.73;;;4.33;;
938;SDS011;456;53.584;9.968;2023-08-12T08:57:35;4.50;;;4.10;;
938;SDS011;456;53.584;9.968;2023-08-12T09:00:02;4.67;;;4.27;;
938;SDS011;456;53.584;9.968;2023-08-12T09:02:32;4.30;;;4.00;;
938;SDS011;456;53.584;9.968;2023-08-12T09:04:58;4.47;;;4.07;;
938;SDS011;456;53.584;9.968;2023-08-12T09:07:24;4.23;;;3.93;;
938;SDS011;456;53.584;9.968;2023-08-12T09:09:50;4.30;;;4.00;;
938;SDS011;456;53.584;9.968;2023-08-12T09:12:19;4.33;;;4.03;;
938;SDS011;456;53.584;9.968;2023-08-12T09:14:45;4.00;;;3.70;;
938;SDS011;456;53.584;9.968;2023-08-12T09:17:11;4.73;;;4.33;;
938;SDS011;456;53.584;9.968;2023-08-12T09:19:36;4.53;;;4.23;;
938;SDS011;456;53.584;9.968;2023-08-12T09:22:07;3.60;;;3.40;;
938;SDS011;456;53.584;9.968;2023-08-12T09:24:34;4.03;;;3.73;;
938;SDS011;456;53.584;9.968;2023-08-12T09:26:59;3.30;;;3.10;;
938;SDS011;456;53.584;9.968;2023-08-12T09:29:32;4.30;;;4.00;;
938;SDS011;456;53.584;9.968;2023-08-12T09:32:11;4.10;;;3.80;;
938;SDS011;456;53.584;9.968;2023-08-12T09:34:45;4.57;;;4.13;;
938;SDS011;456;53.584;9.968;2023-08-12T09:37:16;3.57;;;3.27;;
938;SDS011;456;53.584;9.968;2023-08-12T09:39:42;3.50;;;3.30;;
938;SDS011;456;53.584;9.968;2023-08-12T09:42:08;4.17;;;3.80;;
938;SDS011;456;53.584;9.968;2023-08-12T09:44:35;4.13;;;3.83;;
938;SDS011;456;53.584;9.968;2023-08-12T09:47:01;3.87;;;3.47;;
938;SDS011;456;53.584;9.968;2023-08-12T09:49:26;3.70;;;3.50;;
938;SDS011;456;53.584;9.968;2023-08-12T09:51:53;4.20;;;3.80;;
938;SDS011;456;53.584;9.968;2023-08-12T09:54:18;3.77;;;3.57;;
938;SDS011;456;53.584;9.968;2023-08-12T09:56:46;3.67;;;3.47;;
938;SDS011;456;53.584;9.968;2023-08-12T09:59:14;4.03;;;3.73;;
938;SDS011;456;53.584;9.968;2023-08-12T10:01:45;4.03;;;3.73;;
938;SDS011;456;53.584;9.968;2023-08-12T10:04:12;3.93;;;3.63;;
938;SDS011;456;53.584;9.968;2023-08-12T10:06:42;3.30;;;3.10;;
938;SDS011;456;53.584;9.968;2023-08-12T10:09:08;3.70;;;3.50;;
938;SDS011;456;53.584;9.968;2023-08-12T10:11:36;3.50;;;3.30;;
938;SDS011;456;53.584;9.968;2023-08-12T10:14:03;3.50;;;3.30;;
938;SDS011;456;53.584;9.968;2023-08-12T10:16:30;3.30;;;3.10;;
938;SDS011;456;53.584;9.968;2023-08-12T10:18:57;3.20;;;3.00;;
938;SDS011;456;53.584;9.968;2023-08-12T10:21:23;3.40;;;3.10;;
938;SDS011;456;53.584;9.968;2023-08-12T10:23:50;3.53;;;2.73;;
938;SDS011;456;53.584;9.968;2023-08-12T10:26:26;3.30;;;3.10;;
938;SDS011;456;53.584;9.968;2023-08-12T10:28:51;2.93;;;2.73;;
938;SDS011;456;53.584;9.968;2023-08-12T10:31:17;3.10;;;2.83;;
938;SDS011;456;53.584;9.968;2023-08-12T10:33:44;3.20;;;3.00;;
938;SDS011;456;53.584;9.968;2023-08-12T10:36:13;3.00;;;2.70;;
938;SDS011;456;53.584;9.968;2023-08-12T10:38:40;3.07;;;2.87;;
938;SDS011;456;53.584;9.968;2023-08-12T10:43:58;3.27;;;3.07;;
938;SDS011;456;53.584;9.968;2023-08-12T10:46:35;3.80;;;3.50;;
938;SDS011;456;53.584;9.968;2023-08-12T10:49:02;3.50;;;3.30;;
938;SDS011;456;53.584;9.968;2023-08-12T10:51:41;3.10;;;2.90;;
938;SDS011;456;53.584;9.968;2023-08-12T10:54:16;3.43;;;3.23;;
938;SDS011;456;53.584;9.968;2023-08-12T11:02:30;3.20;;;2.90;;
938;SDS011;456;53.584;9.968;2023-08-12T11:05:07;2.60;;;2.40;;
938;SDS011;456;53.584;9.968;2023-08-12T11:07:37;2.93;;;2.73;;
938;SDS011;456;53.584;9.968;2023-08-12T11:12:35;3.17;;;2.97;;
938;SDS011;456;53.584;9.968;2023-08-12T11:15:02;3.37;;;3.13;;
938;SDS011;456;53.584;9.968;2023-08-12T11:17:50;3.43;;;3.13;;
938;SDS011;456;53.584;9.968;2023-08-12T11:20:15;2.80;;;2.60;;
938;SDS011;456;53.584;9.968;2023-08-12T11:22:42;2.90;;;2.70;;
938;SDS011;456;53.584;9.968;2023-08-12T11:25:09;2.80;;;2.60;;
938;SDS011;456;53.584;9.968;2023-08-12T11:27:44;3.00;;;2.67;;
938;SDS011;456;53.584;9.968;2023-08-12T11:30:14;3.03;;;2.83;;
938;SDS011;456;53.584;9.968;2023-08-12T11:32:46;3.80;;;3.50;;
938;SDS011;456;53.584;9.968;2023-08-12T11:35:14;2.70;;;2.50;;
938;SDS011;456;53.584;9.968;2023-08-12T11:37:41;3.03;;;2.83;;
938;SDS011;456;53.584;9.968;2023-08-12T11:40:08;2.73;;;2.53;;
938;SDS011;456;53.584;9.968;2023-08-12T11:42:36;2.77;;;2.57;;
938;SDS011;456;53.584;9.968;2023-08-12T11:45:02;3.40;;;3.10;;
938;SDS011;456;53.584;9.968;2023-08-12T11:47:29;3.43;;;3.13;;
938;SDS011;456;53.584;9.968;2023-08-12T11:49:54;3.23;;;3.03;;
938;SDS011;456;53.584;9.968;2023-08-12T11:52:20;3.00;;;2.70;;
938;SDS011;456;53.584;9.968;2023-08-12T11:54:46;3.30;;;3.10;;
938;SDS011;456;53.584;9.968;2023-08-12T11:57:14;3.07;;;2.87;;
938;SDS011;456;53.584;9.968;2023-08-12T11:59:40;3.00;;;2.80;;
938;SDS011;456;53.584;9.968;2023-08-12T12:02:06;2.80;;;2.60;;
938;SDS011;456;53.584;9.968;2023-08-12T12:04:32;3.00;;;2.80;;
938;SDS011;456;53.584;9.968;2023-08-12T12:06:57;3.30;;;3.10;;
938;SDS011;456;53.584;9.968;2023-08-12T12:09:25;3.00;;;2.80;;
938;SDS011;456;53.584;9.968;2023-08-12T12:11:54;3.13;;;2.87;;
938;SDS011;456;53.584;9.968;2023-08-12T12:14:20;3.37;;;3.10;;
938;SDS011;456;53.584;9.968;2023-08-12T12:16:47;2.97;;;2.77;;
938;SDS011;456;53.584;9.968;2023-08-12T12:19:13;3.27;;;2.97;;
938;SDS011;456;53.584;9.968;2023-08-12T12:21:40;2.70;;;2.50;;
938;SDS011;456;53.584;9.968;2023-08-12T12:24:07;3.20;;;2.90;;
938;SDS011;456;53.584;9.968;2023-08-12T12:26:34;3.20;;;3.00;;
938;SDS011;456;53.584;9.968;2023-08-12T12:28:59;3.20;;;3.00;;
938;SDS011;456;53.584;9.968;2023-08-12T12:31:25;3.47;;;3.27;;
938;SDS011;456;53.584;9.968;2023-08-12T12:33:51;3.03;;;2.83;;
938;SDS011;456;53.584;9.968;2023-08-12T12:36:16;3.60;;;3.30;;
938;SDS011;456;53.584;9.968;2023-08-12T12:38:42;3.20;;;2.93;;
938;SDS011;456;53.584;9.968;2023-08-12T12:41:08;3.30;;;3.00;;
938;SDS011;456;53.584;9.968;2023-08-12T12:43:34;3.30;;;3.10;;
938;SDS011;456;53.584;9.968;2023-08-12T12:45:59;3.17;;;2.97;;
938;SDS011;456;53.584;9.968;2023-08-12T12:48:25;3.20;;;3.00;;
938;SDS011;456;53.584;9.968;2023-08-12T12:50:50;3.30;;;3.10;;
938;SDS011;456;53.584;9.968;2023-08-12T12:53:16;3.33;;;2.90;;
938;SDS011;456;53.584;9.968;2023-08-12T12:55:42;4.00;;;3.13;;
938;SDS011;456;53.584;9.968;2023-08-12T12:58:07;3.40;;;2.97;;
938;SDS011;456;53.584;9.968;2023-08-12T13:00:34;3.10;;;2.80;;
938;SDS011;456;53.584;9.968;2023-08-12T13:03:00;3.80;;;3.27;;
938;SDS011;456;53.584;9.968;2023-08-12T13:05:25;3.20;;;2.83;;
938;SDS011;456;53.584;9.968;2023-08-12T13:07:51;3.57;;;3.27;;
938;SDS011;456;53.584;9.968;2023-08-12T13:10:16;3.33;;;3.13;;
938;SDS011;456;53.584;9.968;2023-08-12T13:12:42;4.00;;;3.10;;
938;SDS011;456;53.584;9.968;2023-08-12T13:15:07;3.53;;;3.33;;
938;SDS011;456;53.584;9.968;2023-08-12T13:17:33;3.53;;;3.23;;
938;SDS011;456;53.584;9.968;2023-08-12T13:19:59;3.30;;;3.00;;
938;SDS011;456;53.584;9.968;2023-08-12T13:22:24;3.50;;;3.20;;
938;SDS011;456;53.584;9.968;2023-08-12T13:24:50;4.10;;;3.80;;
938;SDS011;456;53.584;9.968;2023-08-12T13:27:15;3.70;;;3.37;;
938;SDS011;456;53.584;9.968;2023-08-12T13:29:42;3.27;;;3.07;;
938;SDS011;456;53.584;9.968;2023-08-12T13:32:08;3.60;;;3.30;;
938;SDS011;456;53.584;9.968;2023-08-12T13:34:33;3.27;;;3.07;;
938;SDS011;456;53.584;9.968;2023-08-12T13:36:59;3.87;;;3.57;;
938;SDS011;456;53.584;9.968;2023-08-12T13:39:24;3.53;;;3.10;;
938;SDS011;456;53.584;9.968;2023-08-12T13:41:51;3.10;;;2.90;;
938;SDS011;456;53.584;9.968;2023-08-12T13:44:16;3.03;;;2.83;;
938;SDS011;456;53.584;9.968;2023-08-12T13:46:42;3.87;;;3.60;;
938;SDS011;456;53.584;9.968;2023-08-12T13:49:08;3.80;;;3.50;;
938;SDS011;456;53.584;9.968;2023-08-12T13:51:33;2.97;;;2.77;;
938;SDS011;456;53.584;9.968;2023-08-12T13:53:59;3.40;;;3.10;;
938;SDS011;456;53.584;9.968;2023-08-12T13:56:24;3.53;;;3.33;;
938;SDS011;456;53.584;9.968;2023-08-12T13:58:50;3.43;;;3.17;;
938;SDS011;456;53.584;9.968;2023-08-12T14:01:15;3.30;;;3.10;;
938;SDS011;456;53.584;9.968;2023-08-12T14:03:41;3.33;;;3.10;;
938;SDS011;456;53.584;9.968;2023-08-12T14:06:06;3.30;;;3.10;;
938;SDS011;456;53.584;9.968;2023-08-12T14:08:32;3.90;;;3.60;;
938;SDS011;456;53.584;9.968;2023-08-12T14:10:58;3.70;;;3.40;;
938;SDS011;456;53.584;9.968;2023-08-12T14:13:23;3.20;;;2.90;;
938;SDS011;456;53.584;9.968;2023-08-12T14:15:49;3.37;;;3.07;;
938;SDS011;456;53.584;9.968;2023-08-12T14:18:14;3.70;;;3.40;;
938;SDS011;456;53.584;9.968;2023-08-12T14:20:40;3.60;;;3.30;;
938;SDS011;456;53.584;9.968;2023-08-12T14:23:05;3.40;;;3.10;;
938;SDS011;456;53.584;9.968;2023-08-12T14:25:31;3.03;;;2.83;;
938;SDS011;456;53.584;9.968;2023-08-12T14:27:56;3.60;;;3.40;;
938;SDS011;456;53.584;9.968;2023-08-12T14:30:25;3.30;;;3.10;;
938;SDS011;456;53.584;9.968;2023-08-12T14:32:51;3.53;;;3.33;;
938;SDS011;456;53.584;9.968;2023-08-12T14:35:17;3.43;;;3.13;;
938;SDS011;456;53.584;9.968;2023-08-12T14:37:43;3.60;;;3.23;;
938;SDS011;456;53.584;9.968;2023-08-12T14:40:09;3.27;;;3.07;;
938;SDS011;456;53.584;9.968;2023-08-12T14:42:35;3.27;;;2.97;;
938;SDS011;456;53.584;9.968;2023-08-12T14:45:01;2.93;;;2.73;;
938;SDS011;456;53.584;9.968;2023-08-12T14:47:27;3.50;;;3.30;;
938;SDS011;456;53.584;9.968;2023-08-12T14:49:52;3.50;;;3.20;;
938;SDS011;456;53.584;9.968;2023-08-12T14:52:21;3.33;;;3.13;;
938;SDS011;456;53.584;9.968;2023-08-12T14:54:47;3.33;;;3.13;;
938;SDS011;456;53.584;9.968;2023-08-12T14:57:13;3.57;;;3.27;;
938;SDS011;456;53.584;9.968;2023-08-12T14:59:38;3.60;;;3.30;;
938;SDS011;456;53.584;9.968;2023-08-12T15:02:04;4.00;;;3.60;;
938;SDS011;456;53.584;9.968;2023-08-12T15:04:30;3.73;;;3.43;;
938;SDS011;456;53.584;9.968;2023-08-12T15:06:55;3.50;;;3.30;;
938;SDS011;456;53.584;9.968;2023-08-12T15:09:21;3.70;;;3.40;;
938;SDS011;456;53.584;9.968;2023-08-12T15:11:47;3.57;;;3.30;;
938;SDS011;456;53.584;9.968;2023-08-12T15:14:12;3.30;;;3.10;;
938;SDS011;456;53.584;9.968;2023-08-12T15:16:38;3.57;;;3.33;;
938;SDS011;456;53.584;9.968;2023-08-12T15:19:03;3.60;;;3.30;;
938;SDS011;456;53.584;9.968;2023-08-12T15:21:29;3.50;;;3.20;;
938;SDS011;456;53.584;9.968;2023-08-12T15:23:55;3.73;;;3.43;;
938;SDS011;456;53.584;9.968;2023-08-12T15:26:20;3.30;;;3.00;;
938;SDS011;456;53.584;9.968;2023-08-12T15:28:49;3.80;;;3.50;;
938;SDS011;456;53.584;9.968;2023-08-12T15:31:15;3.87;;;3.57;;
938;SDS011;456;53.584;9.968;2023-08-12T15:33:40;3.27;;;3.07;;
938;SDS011;456;53.584;9.968;2023-08-12T15:36:06;4.40;;;4.00;;
938;SDS011;456;53.584;9.968;2023-08-12T15:38:32;3.37;;;3.17;;
938;SDS011;456;53.584;9.968;2023-08-12T15:40:58;3.30;;;3.10;;
938;SDS011;456;53.584;9.968;2023-08-12T15:43:25;3.80;;;3.50;;
938;SDS011;456;53.584;9.968;2023-08-12T15:45:51;3.03;;;2.83;;
938;SDS011;456;53.584;9.968;2023-08-12T15:48:17;4.57;;;4.17;;
938;SDS011;456;53.584;9.968;2023-08-12T15:50:43;4.00;;;3.70;;
938;SDS011;456;53.584;9.968;2023-08-12T15:53:10;3.63;;;3.40;;
938;SDS011;456;53.584;9.968;2023-08-12T15:55:35;3.53;;;3.23;;
938;SDS011;456;53.584;9.968;2023-08-12T15:58:01;3.40;;;3.20;;
938;SDS011;456;53.584;9.968;2023-08-12T16:00:27;3.90;;;3.60;;
938;SDS011;456;53.584;9.968;2023-08-12T16:02:52;3.73;;;3.47;;
938;SDS011;456;53.584;9.968;2023-08-12T16:05:18;3.77;;;3.50;;
938;SDS011;456;53.584;9.968;2023-08-12T16:07:43;3.50;;;3.20;;
938;SDS011;456;53.584;9.968;2023-08-12T16:10:09;4.10;;;3.80;;
938;SDS011;456;53.584;9.968;2023-08-12T16:12:35;3.90;;;3.60;;
938;SDS011;456;53.584;9.968;2023-08-12T16:15:00;4.30;;;4.00;;
938;SDS011;456;53.584;9.968;2023-08-12T16:17:26;3.70;;;3.50;;
938;SDS011;456;53.584;9.968;2023-08-12T16:19:52;4.00;;;3.70;;